KQA606 HKJK-HKMO
Flight info
| Callsign | KQA606 |
|---|---|
| Flight time | 0h 38m |
| Altitude | 31000 |
| Route | UVOVA UQ135 NEREV |
| Aircraft | B738/M-SDE2E3FGHIRWXY/LB1 |
Departure
| Time | 2026-05-07 12:53 |
|---|---|
| Airport | Jomo Kenyatta International Airport (HKJK) |
Arrival
| Time | 2026-05-07 13:32 |
|---|---|
| Airport | Moi International Airport (HKMO) |
| Time | Latitude | Longitude | Altitude | Speed | Heading |
|---|---|---|---|---|---|
| 2026-05-07 12:42 | -1.32973 | 36.92722 | 5316 ft | 0 kts | 341° |
| 2026-05-07 12:48 | -1.32972 | 36.92721 | 5316 ft | 1 kts | 341° |
| 2026-05-07 12:48 | -1.32959 | 36.92719 | 5320 ft | 4 kts | 357° |
| 2026-05-07 12:48 | -1.32925 | 36.92734 | 5316 ft | 7 kts | 21° |
| 2026-05-07 12:48 | -1.32866 | 36.92718 | 5323 ft | 11 kts | 320° |
| 2026-05-07 12:49 | -1.32807 | 36.92649 | 5323 ft | 15 kts | 302° |
| 2026-05-07 12:49 | -1.32767 | 36.92542 | 5323 ft | 18 kts | 278° |
| 2026-05-07 12:49 | -1.32782 | 36.92407 | 5319 ft | 21 kts | 251° |
| 2026-05-07 12:49 | -1.32847 | 36.92299 | 5318 ft | 15 kts | 237° |
| 2026-05-07 12:50 | -1.32808 | 36.92215 | 5321 ft | 15 kts | 324° |
| 2026-05-07 12:50 | -1.32807 | 36.92129 | 5325 ft | 14 kts | 235° |
| 2026-05-07 12:50 | -1.32864 | 36.92051 | 5321 ft | 14 kts | 233° |
| 2026-05-07 12:50 | -1.32902 | 36.91970 | 5332 ft | 13 kts | 277° |
| 2026-05-07 12:51 | -1.32887 | 36.91882 | 5333 ft | 13 kts | 278° |
| 2026-05-07 12:51 | -1.32874 | 36.91796 | 5334 ft | 12 kts | 274° |
| 2026-05-07 12:51 | -1.32854 | 36.91717 | 5335 ft | 12 kts | 319° |
| 2026-05-07 12:51 | -1.32786 | 36.91668 | 5336 ft | 12 kts | 323° |
| 2026-05-07 12:52 | -1.32721 | 36.91689 | 5336 ft | 12 kts | 56° |
| 2026-05-07 12:52 | -1.32639 | 36.91802 | 5332 ft | 43 kts | 54° |
| 2026-05-07 12:52 | -1.32316 | 36.92242 | 5315 ft | 112 kts | 53° |
| 2026-05-07 12:52 | -1.31746 | 36.93026 | 5342 ft | 162 kts | 56° |
| 2026-05-07 12:53 | -1.31072 | 36.93955 | 5888 ft | 171 kts | 55° |
| 2026-05-07 12:53 | -1.30352 | 36.94921 | 6649 ft | 173 kts | 62° |
| 2026-05-07 12:53 | -1.29967 | 36.96072 | 7157 ft | 181 kts | 87° |
| 2026-05-07 12:53 | -1.29862 | 36.97306 | 7911 ft | 181 kts | 87° |
| 2026-05-07 12:54 | -1.29750 | 36.98579 | 8586 ft | 184 kts | 86° |
| 2026-05-07 12:54 | -1.29619 | 36.99939 | 8903 ft | 211 kts | 85° |
| 2026-05-07 12:54 | -1.29460 | 37.01481 | 9080 ft | 235 kts | 85° |
| 2026-05-07 12:54 | -1.29275 | 37.03191 | 9260 ft | 260 kts | 85° |
| 2026-05-07 12:55 | -1.29063 | 37.05086 | 9461 ft | 287 kts | 84° |
| 2026-05-07 12:55 | -1.28829 | 37.07107 | 10099 ft | 297 kts | 84° |
| 2026-05-07 12:55 | -1.28586 | 37.09173 | 10730 ft | 302 kts | 84° |
| 2026-05-07 12:55 | -1.28340 | 37.11257 | 11209 ft | 302 kts | 84° |
| 2026-05-07 12:56 | -1.28111 | 37.13355 | 11968 ft | 305 kts | 88° |
| 2026-05-07 12:56 | -1.28478 | 37.15423 | 12768 ft | 305 kts | 114° |
| 2026-05-07 12:56 | -1.29670 | 37.17180 | 13547 ft | 308 kts | 133° |
| 2026-05-07 12:56 | -1.31183 | 37.18714 | 14266 ft | 312 kts | 135° |
| 2026-05-07 12:57 | -1.32751 | 37.20240 | 14924 ft | 316 kts | 135° |
| 2026-05-07 12:57 | -1.34344 | 37.21779 | 15521 ft | 324 kts | 135° |
| 2026-05-07 12:57 | -1.36018 | 37.23403 | 15674 ft | 346 kts | 134° |
| 2026-05-07 12:57 | -1.37768 | 37.25109 | 15802 ft | 366 kts | 135° |
| 2026-05-07 12:58 | -1.39630 | 37.26932 | 15979 ft | 382 kts | 135° |
| 2026-05-07 12:58 | -1.41547 | 37.28814 | 16421 ft | 389 kts | 135° |
| 2026-05-07 12:58 | -1.43483 | 37.30719 | 17020 ft | 391 kts | 134° |
| 2026-05-07 12:58 | -1.45422 | 37.32629 | 17637 ft | 393 kts | 135° |
| 2026-05-07 12:59 | -1.47377 | 37.34558 | 18117 ft | 397 kts | 135° |
| 2026-05-07 12:59 | -1.49356 | 37.36510 | 18605 ft | 401 kts | 134° |
| 2026-05-07 12:59 | -1.51344 | 37.38473 | 19086 ft | 403 kts | 134° |
| 2026-05-07 12:59 | -1.53347 | 37.40450 | 19545 ft | 405 kts | 134° |
| 2026-05-07 13:00 | -1.55360 | 37.42437 | 19998 ft | 408 kts | 134° |
| 2026-05-07 13:00 | -1.57391 | 37.44442 | 20372 ft | 413 kts | 134° |
| 2026-05-07 13:00 | -1.59438 | 37.46462 | 20804 ft | 415 kts | 134° |
| 2026-05-07 13:00 | -1.61497 | 37.48496 | 21227 ft | 417 kts | 134° |
| 2026-05-07 13:01 | -1.63570 | 37.50542 | 21661 ft | 420 kts | 134° |
| 2026-05-07 13:01 | -1.65655 | 37.52600 | 22034 ft | 423 kts | 135° |
| 2026-05-07 13:01 | -1.67760 | 37.54679 | 22374 ft | 427 kts | 134° |
| 2026-05-07 13:01 | -1.69879 | 37.56771 | 22755 ft | 429 kts | 134° |
| 2026-05-07 13:02 | -1.72009 | 37.58874 | 23136 ft | 432 kts | 134° |
| 2026-05-07 13:02 | -1.74155 | 37.60994 | 23467 ft | 435 kts | 135° |
| 2026-05-07 13:02 | -1.76319 | 37.63130 | 23750 ft | 438 kts | 135° |
| 2026-05-07 13:02 | -1.78491 | 37.65277 | 24048 ft | 440 kts | 134° |
| 2026-05-07 13:03 | -1.80664 | 37.67438 | 24358 ft | 442 kts | 134° |
| 2026-05-07 13:03 | -1.82846 | 37.69613 | 24650 ft | 443 kts | 135° |
| 2026-05-07 13:03 | -1.85032 | 37.71795 | 24929 ft | 445 kts | 135° |
| 2026-05-07 13:03 | -1.87229 | 37.73989 | 25207 ft | 447 kts | 135° |
| 2026-05-07 13:04 | -1.89436 | 37.76192 | 25481 ft | 450 kts | 135° |
| 2026-05-07 13:04 | -1.91654 | 37.78406 | 25753 ft | 452 kts | 135° |
| 2026-05-07 13:04 | -1.93855 | 37.80602 | 26005 ft | 454 kts | 135° |
| 2026-05-07 13:04 | -1.96097 | 37.82838 | 26251 ft | 456 kts | 135° |
| 2026-05-07 13:05 | -1.98343 | 37.85079 | 26511 ft | 458 kts | 135° |
| 2026-05-07 13:05 | -2.00603 | 37.87333 | 26766 ft | 460 kts | 135° |
| 2026-05-07 13:05 | -2.02872 | 37.89596 | 26986 ft | 462 kts | 135° |
| 2026-05-07 13:05 | -2.05157 | 37.91875 | 26953 ft | 466 kts | 135° |
| 2026-05-07 13:06 | -2.06710 | 37.93425 | 26965 ft | 469 kts | 135° |
| 2026-05-07 13:06 | -2.09030 | 37.95739 | 26972 ft | 472 kts | 135° |
| 2026-05-07 13:06 | -2.11361 | 37.98065 | 26974 ft | 475 kts | 135° |
| 2026-05-07 13:06 | -2.13710 | 38.00409 | 26958 ft | 478 kts | 135° |
| 2026-05-07 13:07 | -2.16068 | 38.02762 | 26956 ft | 481 kts | 135° |
| 2026-05-07 13:07 | -2.18410 | 38.05098 | 26952 ft | 483 kts | 135° |
| 2026-05-07 13:07 | -2.20790 | 38.07474 | 26949 ft | 485 kts | 135° |
| 2026-05-07 13:07 | -2.23182 | 38.09860 | 26936 ft | 486 kts | 135° |
| 2026-05-07 13:08 | -2.25580 | 38.12254 | 26935 ft | 488 kts | 135° |
| 2026-05-07 13:08 | -2.27985 | 38.14654 | 26935 ft | 489 kts | 135° |
| 2026-05-07 13:08 | -2.30395 | 38.17060 | 26929 ft | 490 kts | 135° |
| 2026-05-07 13:08 | -2.32810 | 38.19469 | 26914 ft | 491 kts | 135° |
| 2026-05-07 13:09 | -2.35225 | 38.21881 | 26919 ft | 491 kts | 135° |
| 2026-05-07 13:09 | -2.37642 | 38.24293 | 26917 ft | 491 kts | 135° |
| 2026-05-07 13:09 | -2.40064 | 38.26711 | 26917 ft | 491 kts | 135° |
| 2026-05-07 13:09 | -2.42480 | 38.29124 | 26907 ft | 490 kts | 135° |
| 2026-05-07 13:10 | -2.44891 | 38.31530 | 26904 ft | 490 kts | 135° |
| 2026-05-07 13:10 | -2.47300 | 38.33935 | 26908 ft | 489 kts | 135° |
| 2026-05-07 13:10 | -2.49703 | 38.36335 | 26905 ft | 488 kts | 135° |
| 2026-05-07 13:10 | -2.52105 | 38.38733 | 26906 ft | 487 kts | 135° |
| 2026-05-07 13:11 | -2.54501 | 38.41126 | 26901 ft | 486 kts | 135° |
| 2026-05-07 13:11 | -2.56893 | 38.43515 | 26902 ft | 486 kts | 135° |
| 2026-05-07 13:11 | -2.59281 | 38.45900 | 26905 ft | 485 kts | 135° |
| 2026-05-07 13:11 | -2.61667 | 38.48283 | 26899 ft | 485 kts | 135° |
| 2026-05-07 13:12 | -2.64022 | 38.50635 | 26899 ft | 485 kts | 135° |
| 2026-05-07 13:12 | -2.66406 | 38.53017 | 26899 ft | 484 kts | 135° |
| 2026-05-07 13:12 | -2.68822 | 38.55430 | 26902 ft | 485 kts | 135° |
| 2026-05-07 13:12 | -2.71175 | 38.57781 | 26898 ft | 485 kts | 135° |
| 2026-05-07 13:13 | -2.73558 | 38.60162 | 26897 ft | 485 kts | 135° |
| 2026-05-07 13:13 | -2.75943 | 38.62545 | 26900 ft | 485 kts | 135° |
| 2026-05-07 13:13 | -2.78326 | 38.64926 | 26904 ft | 485 kts | 135° |
| 2026-05-07 13:13 | -2.80712 | 38.67310 | 26903 ft | 484 kts | 135° |
| 2026-05-07 13:14 | -2.83092 | 38.69689 | 26900 ft | 484 kts | 135° |
| 2026-05-07 13:14 | -2.85473 | 38.72069 | 26896 ft | 483 kts | 135° |
| 2026-05-07 13:14 | -2.87850 | 38.74444 | 26902 ft | 483 kts | 135° |
| 2026-05-07 13:14 | -2.90227 | 38.76820 | 26902 ft | 483 kts | 135° |
| 2026-05-07 13:15 | -2.92604 | 38.79196 | 26899 ft | 483 kts | 135° |
| 2026-05-07 13:15 | -2.94981 | 38.81573 | 26892 ft | 483 kts | 135° |
| 2026-05-07 13:15 | -2.97369 | 38.83960 | 26251 ft | 487 kts | 135° |
| 2026-05-07 13:15 | -2.99744 | 38.86334 | 25610 ft | 479 kts | 135° |
| 2026-05-07 13:16 | -3.02091 | 38.88680 | 24941 ft | 474 kts | 135° |
| 2026-05-07 13:16 | -3.04410 | 38.90999 | 24240 ft | 469 kts | 135° |
| 2026-05-07 13:16 | -3.06706 | 38.93295 | 23568 ft | 464 kts | 135° |
| 2026-05-07 13:16 | -3.08980 | 38.95570 | 22782 ft | 460 kts | 135° |
| 2026-05-07 13:17 | -3.11227 | 38.97817 | 22083 ft | 453 kts | 134° |
| 2026-05-07 13:17 | -3.13442 | 39.00033 | 21414 ft | 447 kts | 134° |
| 2026-05-07 13:17 | -3.15624 | 39.02216 | 20750 ft | 441 kts | 134° |
| 2026-05-07 13:17 | -3.17777 | 39.04370 | 20102 ft | 435 kts | 135° |
| 2026-05-07 13:18 | -3.19906 | 39.06501 | 19470 ft | 431 kts | 134° |
| 2026-05-07 13:18 | -3.22013 | 39.08609 | 18834 ft | 426 kts | 134° |
| 2026-05-07 13:18 | -3.24075 | 39.10672 | 18189 ft | 423 kts | 135° |
| 2026-05-07 13:18 | -3.26162 | 39.12732 | 17474 ft | 419 kts | 136° |
| 2026-05-07 13:19 | -3.28251 | 39.14741 | 16819 ft | 414 kts | 136° |
| 2026-05-07 13:19 | -3.30327 | 39.16719 | 16184 ft | 410 kts | 136° |
| 2026-05-07 13:19 | -3.32381 | 39.18673 | 15561 ft | 405 kts | 137° |
| 2026-05-07 13:19 | -3.34413 | 39.20607 | 14957 ft | 401 kts | 136° |
| 2026-05-07 13:20 | -3.36431 | 39.22533 | 14318 ft | 399 kts | 136° |
| 2026-05-07 13:20 | -3.38429 | 39.24444 | 13706 ft | 396 kts | 137° |
| 2026-05-07 13:20 | -3.40412 | 39.26343 | 13035 ft | 393 kts | 137° |
| 2026-05-07 13:20 | -3.42379 | 39.28228 | 12422 ft | 389 kts | 137° |
| 2026-05-07 13:21 | -3.44315 | 39.30085 | 11961 ft | 381 kts | 137° |
| 2026-05-07 13:21 | -3.46216 | 39.31908 | 11380 ft | 377 kts | 137° |
| 2026-05-07 13:21 | -3.48107 | 39.33721 | 10729 ft | 376 kts | 137° |
| 2026-05-07 13:21 | -3.49986 | 39.35522 | 10247 ft | 371 kts | 138° |
| 2026-05-07 13:22 | -3.51833 | 39.37294 | 9734 ft | 366 kts | 138° |
| 2026-05-07 13:22 | -3.53670 | 39.39055 | 9051 ft | 365 kts | 137° |
| 2026-05-07 13:22 | -3.55504 | 39.40813 | 8380 ft | 364 kts | 137° |
| 2026-05-07 13:22 | -3.57325 | 39.42560 | 7826 ft | 360 kts | 137° |
| 2026-05-07 13:23 | -3.59121 | 39.44283 | 7351 ft | 354 kts | 138° |
| 2026-05-07 13:23 | -3.60891 | 39.45980 | 6832 ft | 350 kts | 138° |
| 2026-05-07 13:23 | -3.62640 | 39.47658 | 6332 ft | 346 kts | 137° |
| 2026-05-07 13:23 | -3.64375 | 39.49323 | 5736 ft | 345 kts | 137° |
| 2026-05-07 13:24 | -3.66073 | 39.50952 | 5253 ft | 340 kts | 138° |
| 2026-05-07 13:24 | -3.67734 | 39.52547 | 5176 ft | 322 kts | 138° |
| 2026-05-07 13:24 | -3.69314 | 39.54064 | 5090 ft | 307 kts | 138° |
| 2026-05-07 13:24 | -3.70826 | 39.55515 | 4957 ft | 295 kts | 138° |
| 2026-05-07 13:25 | -3.72282 | 39.56912 | 4824 ft | 285 kts | 138° |
| 2026-05-07 13:25 | -3.73688 | 39.58260 | 4704 ft | 275 kts | 138° |
| 2026-05-07 13:25 | -3.75047 | 39.59564 | 4572 ft | 266 kts | 138° |
| 2026-05-07 13:25 | -3.76362 | 39.60826 | 4431 ft | 258 kts | 137° |
| 2026-05-07 13:26 | -3.77638 | 39.62046 | 4303 ft | 249 kts | 139° |
| 2026-05-07 13:26 | -3.79070 | 39.62997 | 4177 ft | 240 kts | 154° |
| 2026-05-07 13:26 | -3.80512 | 39.63712 | 4101 ft | 229 kts | 153° |
| 2026-05-07 13:26 | -3.81885 | 39.64413 | 4042 ft | 214 kts | 153° |
| 2026-05-07 13:27 | -3.83163 | 39.65079 | 3940 ft | 199 kts | 153° |
| 2026-05-07 13:27 | -3.84357 | 39.65703 | 3768 ft | 190 kts | 153° |
| 2026-05-07 13:27 | -3.85520 | 39.66313 | 3508 ft | 186 kts | 153° |
| 2026-05-07 13:27 | -3.86638 | 39.66901 | 3347 ft | 178 kts | 153° |
| 2026-05-07 13:28 | -3.87736 | 39.67453 | 3120 ft | 179 kts | 160° |
| 2026-05-07 13:28 | -3.88953 | 39.67418 | 2871 ft | 178 kts | 201° |
| 2026-05-07 13:28 | -3.90067 | 39.66895 | 2653 ft | 177 kts | 202° |
| 2026-05-07 13:28 | -3.91183 | 39.66335 | 2424 ft | 184 kts | 205° |
| 2026-05-07 13:29 | -3.92321 | 39.65707 | 2156 ft | 187 kts | 206° |
| 2026-05-07 13:29 | -3.93422 | 39.65086 | 1917 ft | 175 kts | 206° |
| 2026-05-07 13:29 | -3.94438 | 39.64513 | 1731 ft | 158 kts | 206° |
| 2026-05-07 13:29 | -3.95364 | 39.63991 | 1510 ft | 147 kts | 206° |
| 2026-05-07 13:30 | -3.96255 | 39.63490 | 1333 ft | 151 kts | 206° |
| 2026-05-07 13:30 | -3.97190 | 39.62964 | 1128 ft | 154 kts | 206° |
| 2026-05-07 13:30 | -3.98102 | 39.62451 | 931 ft | 145 kts | 208° |
| 2026-05-07 13:30 | -3.98972 | 39.61960 | 755 ft | 143 kts | 207° |
| 2026-05-07 13:31 | -3.99858 | 39.61462 | 579 ft | 149 kts | 208° |
| 2026-05-07 13:31 | -4.00747 | 39.60962 | 377 ft | 144 kts | 207° |
| 2026-05-07 13:31 | -4.01613 | 39.60480 | 217 ft | 141 kts | 208° |
| 2026-05-07 13:31 | -4.02386 | 39.60046 | 205 ft | 109 kts | 210° |
| 2026-05-07 13:32 | -4.02692 | 39.59899 | 204 ft | 12 kts | 131° |
| 2026-05-07 13:32 | -4.02749 | 39.59958 | 207 ft | 13 kts | 147° |
| 2026-05-07 13:32 | -4.02822 | 39.60009 | 204 ft | 13 kts | 134° |
| 2026-05-07 13:32 | -4.02869 | 39.60085 | 212 ft | 13 kts | 118° |
| 2026-05-07 13:33 | -4.02911 | 39.60161 | 204 ft | 12 kts | 119° |
| 2026-05-07 13:33 | -4.02963 | 39.60225 | 204 ft | 12 kts | 160° |
| 2026-05-07 13:33 | -4.03040 | 39.60200 | 209 ft | 12 kts | 209° |
| 2026-05-07 13:33 | -4.03110 | 39.60161 | 204 ft | 11 kts | 208° |
| 2026-05-07 13:34 | -4.03174 | 39.60144 | 208 ft | 8 kts | 139° |
| 2026-05-07 13:34 | -4.03208 | 39.60204 | 206 ft | 0 kts | 118° |